createdAt,value
2023-01-30T00:00:53.517Z,40.28
2023-01-30T00:03:20.284Z,41.63
2023-01-30T00:05:46.699Z,42.20
2023-01-30T00:08:13.318Z,42.63
2023-01-30T00:10:39.723Z,43.05
2023-01-30T00:13:06.270Z,41.13
2023-01-30T00:15:32.697Z,40.75
2023-01-30T00:17:59.083Z,41.80
2023-01-30T00:20:25.459Z,39.60
2023-01-30T00:23:00.463Z,41.78
2023-01-30T00:25:28.254Z,42.00
2023-01-30T00:27:56.640Z,41.35
2023-01-30T00:30:23.189Z,38.95
2023-01-30T00:32:54.569Z,42.45
2023-01-30T00:35:21.235Z,41.35
2023-01-30T00:37:47.660Z,40.65
2023-01-30T00:40:14.138Z,43.88
2023-01-30T00:42:58.995Z,43.25
2023-01-30T00:45:44.062Z,40.63
2023-01-30T00:48:10.728Z,43.60
2023-01-30T00:50:43.085Z,41.50
2023-01-30T00:53:11.104Z,42.85
2023-01-30T00:55:37.498Z,41.28
2023-01-30T00:58:04.296Z,42.60
2023-01-30T01:00:31.575Z,42.20
2023-01-30T01:02:58.028Z,41.47
2023-01-30T01:05:24.868Z,41.75
2023-01-30T01:07:51.297Z,43.72
2023-01-30T01:10:17.833Z,43.65
2023-01-30T01:12:44.721Z,43.08
2023-01-30T01:15:14.276Z,44.42
2023-01-30T01:17:41.646Z,43.95
2023-01-30T01:20:09.235Z,44.35
2023-01-30T01:22:35.775Z,45.08
2023-01-30T01:25:02.254Z,42.45
2023-01-30T01:27:28.964Z,45.85
2023-01-30T01:29:55.403Z,46.17
2023-01-30T01:32:22.644Z,45.15
2023-01-30T01:34:49.112Z,45.70
2023-01-30T01:37:15.672Z,44.65
2023-01-30T01:40:00.554Z,43.75
2023-01-30T01:42:29.793Z,44.88
2023-01-30T01:45:11.755Z,45.22
2023-01-30T01:47:41.178Z,45.65
2023-01-30T01:50:13.511Z,44.88
2023-01-30T01:52:40.204Z,45.65
2023-01-30T01:55:07.563Z,44.70
2023-01-30T01:57:42.618Z,41.03
2023-01-30T02:00:17.198Z,43.55
2023-01-30T02:02:47.736Z,43.20
2023-01-30T02:05:16.469Z,43.33
2023-01-30T02:07:50.715Z,43.15
2023-01-30T02:10:19.937Z,44.47
2023-01-30T02:12:46.739Z,43.50
2023-01-30T02:15:13.448Z,44.88
2023-01-30T02:17:40.058Z,45.83
2023-01-30T02:20:46.722Z,48.78
2023-01-30T02:23:34.316Z,47.20
2023-01-30T02:26:29.952Z,48.70
2023-01-30T02:29:24.125Z,51.08
2023-01-30T02:31:53.458Z,50.35
2023-01-30T02:35:05.496Z,50.08
2023-01-30T02:38:08.603Z,51.45
2023-01-30T02:40:55.489Z,51.90
2023-01-30T02:43:34.274Z,53.78
2023-01-30T02:46:05.666Z,54.38
2023-01-30T02:48:40.115Z,56.00
2023-01-30T02:51:30.325Z,53.60
2023-01-30T02:53:56.873Z,55.47
2023-01-30T02:56:23.281Z,59.03
2023-01-30T02:58:53.804Z,56.78
2023-01-30T03:01:57.725Z,57.38
2023-01-30T03:04:47.503Z,55.92
2023-01-30T03:07:35.797Z,55.42
2023-01-30T03:10:33.206Z,59.00
2023-01-30T03:13:15.090Z,56.10
2023-01-30T03:15:59.530Z,58.63
2023-01-30T03:18:25.926Z,57.50
2023-01-30T03:20:52.522Z,57.80
2023-01-30T03:23:18.953Z,57.83
2023-01-30T03:25:46.440Z,55.97
2023-01-30T03:28:14.996Z,57.28
2023-01-30T03:30:41.459Z,58.05
2023-01-30T03:33:08.076Z,55.28
2023-01-30T03:35:34.483Z,53.47
2023-01-30T03:38:00.914Z,53.13
2023-01-30T03:40:27.392Z,50.08
2023-01-30T03:42:53.868Z,47.85
2023-01-30T03:45:20.507Z,45.47
2023-01-30T03:47:47.041Z,44.60
2023-01-30T03:50:13.528Z,44.28
2023-01-30T03:52:39.954Z,41.50
2023-01-30T03:55:06.830Z,38.10
2023-01-30T03:57:33.301Z,41.60
2023-01-30T03:59:59.702Z,40.63
2023-01-30T04:02:26.271Z,36.92
2023-01-30T04:04:53.137Z,37.45
2023-01-30T04:07:19.933Z,37.00
2023-01-30T04:09:46.421Z,37.13
2023-01-30T04:12:13.264Z,35.28
2023-01-30T04:14:39.714Z,36.90
2023-01-30T04:17:06.222Z,37.08
2023-01-30T04:19:33.327Z,34.30
2023-01-30T04:21:59.754Z,34.83
2023-01-30T04:24:26.197Z,35.08
2023-01-30T04:26:52.849Z,34.97
2023-01-30T04:29:19.555Z,34.33
2023-01-30T04:31:45.972Z,33.13
2023-01-30T04:34:12.427Z,35.03
2023-01-30T04:36:38.869Z,35.70
2023-01-30T04:39:05.371Z,34.67
2023-01-30T04:41:31.769Z,35.53
2023-01-30T04:43:58.165Z,36.38
2023-01-30T04:46:24.636Z,35.17
2023-01-30T04:48:51.086Z,36.17
2023-01-30T04:51:17.509Z,36.38
2023-01-30T04:53:43.966Z,35.65
2023-01-30T04:56:10.412Z,33.13
2023-01-30T04:58:36.905Z,31.88
2023-01-30T05:01:19.349Z,31.67
2023-01-30T05:03:45.785Z,29.88
2023-01-30T05:06:12.258Z,29.60
2023-01-30T05:08:38.855Z,27.45
2023-01-30T05:11:05.442Z,27.38
2023-01-30T05:13:31.827Z,26.55
2023-01-30T05:15:58.252Z,26.17
2023-01-30T05:18:25.021Z,26.92
2023-01-30T05:20:51.455Z,25.45
2023-01-30T05:23:17.917Z,25.10
2023-01-30T05:25:44.385Z,24.85
2023-01-30T05:28:10.786Z,24.63
2023-01-30T05:30:37.331Z,25.92
2023-01-30T05:33:03.802Z,23.40
2023-01-30T05:35:30.185Z,23.50
2023-01-30T05:37:56.609Z,23.88
2023-01-30T05:40:22.988Z,22.77
2023-01-30T05:42:49.478Z,22.33
2023-01-30T05:45:16.388Z,21.77
2023-01-30T05:47:43.091Z,21.85
2023-01-30T05:50:10.345Z,19.80
2023-01-30T05:52:36.760Z,19.08
2023-01-30T05:55:03.189Z,17.02
2023-01-30T05:57:29.665Z,18.23
2023-01-30T05:59:56.086Z,15.35
2023-01-30T06:02:22.547Z,11.60
2023-01-30T06:04:48.955Z,10.75
2023-01-30T06:07:15.369Z,9.40
2023-01-30T06:09:41.802Z,8.52
2023-01-30T06:12:08.819Z,8.73
2023-01-30T06:14:35.301Z,7.95
2023-01-30T06:17:01.782Z,7.93
2023-01-30T06:19:28.276Z,7.90
2023-01-30T06:21:54.715Z,7.70
2023-01-30T06:24:21.189Z,7.20
2023-01-30T06:26:47.712Z,6.88
2023-01-30T06:29:14.267Z,6.70
2023-01-30T06:31:40.990Z,6.68
2023-01-30T06:34:07.446Z,6.88
2023-01-30T06:36:33.849Z,6.82
2023-01-30T06:39:00.272Z,7.07
2023-01-30T06:41:28.987Z,6.50
2023-01-30T06:43:55.637Z,7.78
2023-01-30T06:46:22.044Z,7.53
2023-01-30T06:48:48.442Z,7.72
2023-01-30T06:51:14.844Z,7.38
2023-01-30T06:53:41.306Z,6.57
2023-01-30T06:56:07.818Z,7.13
2023-01-30T06:58:34.237Z,6.65
2023-01-30T07:01:02.036Z,6.28
2023-01-30T07:03:28.585Z,6.25
2023-01-30T07:05:55.048Z,6.53
2023-01-30T07:08:23.273Z,5.88
2023-01-30T07:10:50.633Z,8.23
2023-01-30T07:13:17.052Z,7.45
2023-01-30T07:15:44.534Z,6.60
2023-01-30T07:18:11.098Z,7.03
2023-01-30T07:20:37.561Z,6.68
2023-01-30T07:23:04.280Z,5.72
2023-01-30T07:25:30.693Z,4.40
2023-01-30T07:28:01.512Z,5.28
2023-01-30T07:30:30.241Z,4.68
2023-01-30T07:32:58.338Z,4.65
2023-01-30T07:35:26.706Z,4.72
2023-01-30T07:37:53.306Z,3.88
2023-01-30T07:40:20.609Z,4.13
2023-01-30T07:43:00.923Z,4.40
2023-01-30T07:45:29.304Z,4.03
2023-01-30T07:47:55.722Z,3.92
2023-01-30T07:50:22.107Z,3.58
2023-01-30T07:52:48.509Z,4.07
2023-01-30T07:55:15.038Z,3.88
2023-01-30T07:57:41.479Z,3.10
2023-01-30T08:00:10.882Z,3.70
2023-01-30T08:02:37.321Z,3.38
2023-01-30T08:05:06.102Z,3.67
2023-01-30T08:07:32.690Z,4.40
2023-01-30T08:09:59.104Z,3.20
2023-01-30T08:12:25.591Z,4.22
2023-01-30T08:14:51.999Z,4.28
2023-01-30T08:17:18.427Z,3.90
2023-01-30T08:19:44.827Z,3.40
2023-01-30T08:22:11.266Z,4.18
2023-01-30T08:24:37.647Z,4.22
2023-01-30T08:27:04.086Z,3.40
2023-01-30T08:29:30.557Z,3.45
2023-01-30T08:32:00.025Z,4.03
2023-01-30T08:34:26.859Z,3.75
2023-01-30T08:36:53.313Z,4.35
2023-01-30T08:39:19.854Z,3.47
2023-01-30T08:41:46.323Z,3.67
2023-01-30T08:44:12.850Z,3.97
2023-01-30T08:46:39.666Z,4.03
2023-01-30T08:49:06.356Z,3.42
2023-01-30T08:51:33.292Z,3.58
2023-01-30T08:53:59.833Z,3.67
2023-01-30T08:56:26.256Z,3.53
2023-01-30T08:58:52.635Z,3.85
2023-01-30T09:01:19.294Z,4.80
2023-01-30T09:03:45.806Z,4.18
2023-01-30T09:06:12.332Z,3.38
2023-01-30T09:08:38.716Z,3.50
2023-01-30T09:11:05.714Z,3.75
2023-01-30T09:13:32.833Z,3.80
2023-01-30T09:15:59.264Z,3.80
2023-01-30T09:18:25.711Z,3.83
2023-01-30T09:20:53.525Z,3.67
2023-01-30T09:23:21.699Z,4.00
2023-01-30T09:25:48.234Z,4.10
2023-01-30T09:28:14.888Z,3.53
2023-01-30T09:30:41.455Z,4.63
2023-01-30T09:33:07.933Z,3.55
2023-01-30T09:35:34.376Z,3.88
2023-01-30T09:38:01.456Z,4.00
2023-01-30T09:40:29.593Z,3.53
2023-01-30T09:43:08.594Z,3.25
2023-01-30T09:45:43.821Z,3.38
2023-01-30T09:48:20.210Z,3.35
2023-01-30T09:51:22.952Z,4.35
2023-01-30T09:53:52.248Z,3.30
2023-01-30T09:56:18.642Z,3.90
2023-01-30T09:58:49.559Z,3.55
2023-01-30T10:01:25.758Z,4.35
2023-01-30T10:04:02.880Z,3.58
2023-01-30T10:06:30.930Z,5.00
2023-01-30T10:09:08.913Z,3.80
2023-01-30T10:11:51.893Z,3.28
2023-01-30T10:14:39.724Z,3.72
2023-01-30T10:17:22.022Z,4.18
2023-01-30T10:20:16.903Z,3.33
2023-01-30T10:22:52.329Z,3.40
2023-01-30T10:25:45.558Z,3.72
2023-01-30T10:28:31.327Z,4.05
2023-01-30T10:31:05.176Z,3.88
2023-01-30T10:33:35.675Z,3.25
2023-01-30T10:36:09.334Z,4.28
2023-01-30T10:38:41.639Z,3.80
2023-01-30T10:41:11.540Z,3.88
2023-01-30T10:44:00.114Z,3.47
2023-01-30T10:46:51.544Z,3.10
2023-01-30T10:49:33.307Z,3.77
2023-01-30T10:52:27.023Z,3.15
2023-01-30T10:55:18.119Z,3.60
2023-01-30T10:57:49.557Z,3.65
2023-01-30T11:00:22.633Z,3.20
2023-01-30T11:03:22.301Z,3.88
2023-01-30T11:05:54.336Z,4.25
2023-01-30T11:08:26.961Z,4.32
2023-01-30T11:10:54.368Z,4.20
2023-01-30T11:13:31.770Z,4.55
2023-01-30T11:16:00.190Z,3.67
2023-01-30T11:19:16.844Z,3.95
2023-01-30T11:21:22.256Z,4.13
2023-01-30T11:23:50.977Z,3.95
2023-01-30T11:26:22.906Z,4.05
2023-01-30T11:28:49.404Z,4.25
2023-01-30T11:31:35.086Z,4.55
2023-01-30T11:34:13.297Z,4.97
2023-01-30T11:36:39.769Z,4.20
2023-01-30T11:39:12.066Z,4.18
2023-01-30T11:42:03.410Z,3.92
2023-01-30T11:44:33.693Z,3.80
2023-01-30T11:47:17.313Z,4.45
2023-01-30T11:50:00.640Z,4.22
2023-01-30T11:52:36.784Z,3.67
2023-01-30T11:55:07.616Z,4.18
2023-01-30T11:57:54.556Z,3.95
2023-01-30T12:00:26.425Z,3.85
2023-01-30T12:02:54.119Z,3.70
2023-01-30T12:05:34.674Z,3.58
2023-01-30T12:08:17.509Z,3.67
2023-01-30T12:11:07.568Z,4.65
2023-01-30T12:13:41.857Z,4.63
2023-01-30T12:16:21.172Z,4.20
2023-01-30T12:18:57.083Z,4.03
2023-01-30T12:21:36.899Z,4.10
2023-01-30T12:24:13.528Z,4.03
2023-01-30T12:27:00.590Z,4.10
2023-01-30T12:29:37.507Z,4.00
2023-01-30T12:32:18.839Z,4.43
2023-01-30T12:34:45.812Z,4.10
2023-01-30T12:37:28.760Z,3.78
2023-01-30T12:40:11.787Z,2.92
2023-01-30T12:42:41.153Z,3.78
2023-01-30T12:45:21.810Z,3.67
2023-01-30T12:47:57.171Z,2.83
2023-01-30T12:50:48.662Z,2.80
2023-01-30T12:53:17.909Z,2.45
2023-01-30T12:56:06.506Z,2.92
2023-01-30T12:58:43.558Z,2.17
2023-01-30T13:01:25.109Z,2.90
2023-01-30T13:04:09.867Z,2.15
2023-01-30T13:07:06.271Z,2.20
2023-01-30T13:10:00.786Z,2.42
2023-01-30T13:12:38.191Z,2.88
2023-01-30T13:15:19.066Z,2.78
2023-01-30T13:18:03.754Z,2.58
2023-01-30T13:20:50.108Z,3.22
2023-01-30T13:23:30.707Z,3.30
2023-01-30T13:25:58.992Z,3.65
2023-01-30T13:28:29.017Z,3.40
2023-01-30T13:30:56.063Z,3.25
2023-01-30T13:33:25.965Z,3.50
2023-01-30T13:35:57.822Z,3.75
2023-01-30T13:38:27.230Z,3.38
2023-01-30T13:40:58.098Z,3.20
2023-01-30T13:43:42.486Z,3.33
2023-01-30T13:46:10.932Z,3.40
2023-01-30T13:48:40.453Z,5.30
2023-01-30T13:51:31.732Z,4.93
2023-01-30T13:54:01.628Z,5.60
2023-01-30T13:56:43.142Z,7.10
2023-01-30T13:59:43.964Z,4.97
2023-01-30T14:02:24.291Z,6.55
2023-01-30T14:04:57.767Z,3.65
2023-01-30T14:07:30.295Z,6.97
2023-01-30T14:12:46.816Z,5.53
2023-01-30T14:15:16.410Z,4.85
2023-01-30T14:17:59.072Z,4.63
2023-01-30T14:20:27.347Z,4.25
2023-01-30T14:23:03.538Z,3.22
2023-01-30T14:25:29.892Z,2.30
2023-01-30T14:27:59.426Z,2.45
2023-01-30T14:30:52.438Z,3.03
2023-01-30T14:33:21.910Z,3.00
2023-01-30T14:35:58.396Z,3.13
2023-01-30T14:38:30.742Z,2.95
2023-01-30T14:41:00.345Z,2.75
2023-01-30T14:43:37.327Z,2.97
2023-01-30T14:46:12.855Z,2.88
2023-01-30T14:48:53.238Z,3.55
2023-01-30T14:51:34.838Z,2.63
2023-01-30T14:54:14.028Z,2.63
2023-01-30T14:56:51.000Z,2.60
2023-01-30T14:59:17.344Z,3.13
2023-01-30T15:02:09.499Z,2.63
2023-01-30T15:04:50.483Z,2.90
2023-01-30T15:07:27.439Z,2.53
2023-01-30T15:10:25.427Z,3.05
2023-01-30T15:13:07.053Z,2.22
2023-01-30T15:16:14.838Z,2.53
2023-01-30T15:19:09.143Z,3.05
2023-01-30T15:21:48.704Z,2.75
2023-01-30T15:24:39.969Z,2.80
2023-01-30T15:27:31.869Z,2.38
2023-01-30T15:30:06.065Z,2.70
2023-01-30T15:32:33.165Z,3.17
2023-01-30T15:35:15.983Z,3.40
2023-01-30T15:37:56.187Z,2.20
2023-01-30T15:40:28.350Z,3.45
2023-01-30T15:43:07.386Z,3.08
2023-01-30T15:45:45.954Z,2.67
2023-01-30T15:48:22.192Z,4.00
2023-01-30T15:50:50.799Z,3.20
2023-01-30T15:53:17.702Z,2.92
2023-01-30T15:55:44.930Z,3.55
2023-01-30T15:58:16.142Z,3.25
2023-01-30T16:00:51.464Z,3.33
2023-01-30T16:03:21.507Z,3.55
2023-01-30T16:05:55.233Z,2.78
2023-01-30T16:08:27.004Z,3.15
2023-01-30T16:10:53.523Z,3.63
2023-01-30T16:13:22.418Z,3.25
2023-01-30T16:15:51.776Z,3.25
2023-01-30T16:18:21.219Z,3.20
2023-01-30T16:21:00.708Z,3.88
2023-01-30T16:23:31.626Z,3.17
2023-01-30T16:25:59.047Z,3.70
2023-01-30T16:28:27.823Z,3.92
2023-01-30T16:31:03.055Z,3.17
2023-01-30T16:33:36.124Z,4.43
2023-01-30T16:36:21.376Z,3.75
2023-01-30T16:38:49.415Z,4.53
2023-01-30T16:41:35.885Z,4.18
2023-01-30T16:44:20.386Z,3.97
2023-01-30T16:47:23.205Z,4.10
2023-01-30T16:49:49.959Z,3.92
2023-01-30T16:52:25.036Z,3.20
2023-01-30T16:54:53.857Z,3.22
2023-01-30T16:57:37.566Z,2.72
2023-01-30T17:00:08.076Z,3.08
2023-01-30T17:02:36.723Z,3.70
2023-01-30T17:05:24.135Z,3.70
2023-01-30T17:07:51.701Z,3.78
2023-01-30T17:10:36.854Z,3.55
2023-01-30T17:13:05.410Z,3.63
2023-01-30T17:15:33.317Z,3.42
2023-01-30T17:17:59.950Z,3.50
2023-01-30T17:20:38.200Z,4.53
2023-01-30T17:23:06.220Z,2.75
2023-01-30T17:25:50.908Z,4.30
2023-01-30T17:28:21.184Z,4.10
2023-01-30T17:30:48.883Z,5.57
2023-01-30T17:33:15.439Z,6.05
2023-01-30T17:35:41.909Z,4.57
2023-01-30T17:38:09.341Z,4.90
2023-01-30T17:40:37.537Z,5.35
2023-01-30T17:43:04.636Z,5.13
2023-01-30T17:45:31.091Z,4.45
2023-01-30T17:47:57.507Z,5.07
2023-01-30T17:50:24.078Z,4.28
2023-01-30T17:52:50.505Z,4.32
2023-01-30T17:55:17.536Z,5.22
2023-01-30T17:57:47.793Z,4.40
2023-01-30T18:00:17.285Z,4.75
2023-01-30T18:02:44.160Z,4.43
2023-01-30T18:05:10.655Z,4.20
2023-01-30T18:07:37.435Z,4.57
2023-01-30T18:10:06.087Z,4.47
2023-01-30T18:12:32.517Z,4.70
2023-01-30T18:14:59.157Z,4.57
2023-01-30T18:17:28.409Z,4.30
2023-01-30T18:19:55.424Z,5.60
2023-01-30T18:22:22.344Z,4.28
2023-01-30T18:24:48.737Z,4.85
2023-01-30T18:27:15.139Z,5.68
2023-01-30T18:29:44.087Z,5.00
2023-01-30T18:32:10.481Z,4.75
2023-01-30T18:34:37.669Z,4.35
2023-01-30T18:37:04.078Z,5.00
2023-01-30T18:39:31.827Z,4.38
2023-01-30T18:41:58.305Z,4.68
2023-01-30T18:44:24.776Z,4.80
2023-01-30T18:46:51.302Z,5.82
2023-01-30T18:49:17.892Z,4.40
2023-01-30T18:51:44.275Z,5.18
2023-01-30T18:54:10.682Z,4.75
2023-01-30T18:56:37.183Z,4.60
2023-01-30T18:59:05.448Z,4.65
2023-01-30T19:01:35.528Z,4.70
2023-01-30T19:04:03.349Z,4.60
2023-01-30T19:06:30.237Z,4.35
2023-01-30T19:08:57.338Z,6.05
2023-01-30T19:11:42.380Z,3.75
2023-01-30T19:14:09.107Z,5.07
2023-01-30T19:16:36.941Z,4.18
2023-01-30T19:19:04.208Z,3.72
2023-01-30T19:21:31.167Z,4.40
2023-01-30T19:23:57.742Z,5.00
2023-01-30T19:26:24.861Z,4.07
2023-01-30T19:28:52.133Z,4.38
2023-01-30T19:31:21.002Z,4.35
2023-01-30T19:33:52.725Z,4.22
2023-01-30T19:36:21.011Z,4.90
2023-01-30T19:38:48.303Z,4.70
2023-01-30T19:41:19.523Z,5.38
2023-01-30T19:43:46.088Z,4.40
2023-01-30T19:46:13.266Z,4.20
2023-01-30T19:48:39.983Z,4.47
2023-01-30T19:51:17.397Z,4.68
2023-01-30T19:53:46.039Z,4.95
2023-01-30T19:56:13.433Z,5.05
2023-01-30T19:58:40.697Z,4.45
2023-01-30T20:01:08.777Z,6.15
2023-01-30T20:03:36.671Z,4.25
2023-01-30T20:06:13.052Z,5.50
2023-01-30T20:08:40.134Z,4.18
2023-01-30T20:11:09.289Z,4.78
2023-01-30T20:13:37.089Z,4.78
2023-01-30T20:16:06.500Z,4.85
2023-01-30T20:18:35.207Z,5.35
2023-01-30T20:21:10.209Z,4.60
2023-01-30T20:23:36.768Z,4.57
2023-01-30T20:26:07.471Z,4.25
2023-01-30T20:28:34.632Z,4.35
2023-01-30T20:31:07.955Z,4.60
2023-01-30T20:33:34.446Z,3.85
2023-01-30T20:36:04.803Z,4.40
2023-01-30T20:38:32.445Z,4.97
2023-01-30T20:41:10.401Z,5.18
2023-01-30T20:43:38.744Z,5.63
2023-01-30T20:46:08.338Z,5.32
2023-01-30T20:48:35.580Z,4.82
2023-01-30T20:51:04.253Z,4.80
2023-01-30T20:53:30.947Z,4.93
2023-01-30T20:55:58.475Z,5.30
2023-01-30T20:58:25.824Z,4.38
2023-01-30T21:00:52.385Z,4.93
2023-01-30T21:03:18.801Z,4.53
2023-01-30T21:05:45.225Z,4.63
2023-01-30T21:08:11.619Z,4.50
2023-01-30T21:10:39.693Z,4.45
2023-01-30T21:13:06.097Z,4.50
2023-01-30T21:15:32.517Z,4.90
2023-01-30T21:17:58.894Z,4.85
2023-01-30T21:20:25.323Z,4.55
2023-01-30T21:22:51.825Z,3.97
2023-01-30T21:25:18.924Z,4.55
2023-01-30T21:27:45.512Z,4.90
2023-01-30T21:30:12.153Z,4.45
2023-01-30T21:32:38.757Z,5.50
2023-01-30T21:35:05.834Z,3.95
2023-01-30T21:37:50.934Z,4.30
2023-01-30T21:40:36.598Z,4.05
2023-01-30T21:43:14.957Z,4.90
2023-01-30T21:45:42.045Z,5.03
2023-01-30T21:48:08.494Z,4.93
2023-01-30T21:50:34.860Z,4.45
2023-01-30T21:53:01.839Z,4.93
2023-01-30T21:55:28.215Z,4.72
2023-01-30T21:57:54.666Z,5.00
2023-01-30T22:00:21.158Z,5.32
2023-01-30T22:02:49.599Z,5.38
2023-01-30T22:05:16.080Z,5.85
2023-01-30T22:07:42.581Z,5.28
2023-01-30T22:10:09.493Z,4.47
2023-01-30T22:12:36.440Z,4.40
2023-01-30T22:15:02.958Z,4.97
2023-01-30T22:17:29.636Z,5.25
2023-01-30T22:19:56.043Z,5.68
2023-01-30T22:22:24.559Z,4.45
2023-01-30T22:24:51.176Z,4.88
2023-01-30T22:27:17.582Z,5.35
2023-01-30T22:29:44.078Z,4.82
2023-01-30T22:32:10.600Z,4.72
2023-01-30T22:34:37.045Z,5.15
2023-01-30T22:37:03.514Z,4.80
2023-01-30T22:39:29.942Z,4.80
2023-01-30T22:41:56.405Z,5.18
2023-01-30T22:44:23.113Z,4.60
2023-01-30T22:46:50.829Z,6.00
2023-01-30T22:49:17.355Z,4.63
2023-01-30T22:51:43.804Z,5.05
2023-01-30T22:54:15.891Z,5.60
2023-01-30T22:56:47.359Z,4.50
2023-01-30T22:59:14.466Z,4.05
2023-01-30T23:01:42.892Z,5.70
2023-01-30T23:04:16.946Z,5.28
2023-01-30T23:06:43.550Z,5.15
2023-01-30T23:09:14.793Z,4.80
2023-01-30T23:12:09.616Z,5.38
2023-01-30T23:14:36.919Z,5.00
2023-01-30T23:17:26.736Z,4.40
2023-01-30T23:19:54.282Z,4.63
2023-01-30T23:22:20.943Z,4.10
2023-01-30T23:24:48.622Z,4.63
2023-01-30T23:27:15.198Z,5.03
2023-01-30T23:29:41.750Z,5.05
2023-01-30T23:32:08.286Z,4.78
2023-01-30T23:34:34.691Z,3.97
2023-01-30T23:37:01.115Z,4.47
2023-01-30T23:39:27.488Z,5.03
2023-01-30T23:41:53.859Z,4.07
2023-01-30T23:44:20.353Z,4.07
2023-01-30T23:46:46.859Z,4.22
2023-01-30T23:49:14.783Z,4.30
2023-01-30T23:51:42.801Z,4.88
2023-01-30T23:54:10.161Z,4.65
2023-01-30T23:56:43.718Z,4.22
2023-01-30T23:59:11.051Z,4.30
